Forside
METAR-TAF:

METAR-TAF

Lufthavne :

Visalia Municipal Airport

Visalia, Californien, USA

Breddekreds: 36-19N, længdekreds: 119-24W, højde: 89 m

Aktuelle vejr

Denne rapport blev lavet for 18 minutter siden, kl. 19:56 UTC
Vind 5 kt fra sydvest
Temperatur 15°C
Fugtighed 67%
Tryk 1017 hPa
Sigt: 16.1 km
skyfri
let regn

METAR: KVIS 221956Z AUTO 22005KT 10SM -RA CLR 15/09 A3003 RMK AO2 RAB05 SLP177 P0000 T01500094

Tid: 12:14 (20:14 UTC)

Vejrudsigter

Denne rapport blev lavet for 2 timer og 42 minutter siden, kl. 17:32 UTC
Foreløbig gælder fra 22 på 18 UTC til 23 på 18 UTC
Vind 6 kt fra sydsydøst
Sigt: 10 km
Spredte skyer i en højde af 7000 ft
Overskyet i en højde af 9000 ft
byger i nærheden
Fra 23 på 0300 UTC
Vind 4 kt fra varierende retninger
Sigt: 10 km
Spredte skyer i en højde af 10000 ft

TAF: KVIS 221732Z 2218/2318 15006KT P6SM VCSH SCT070 OVC090 FM230300 VRB04KT P6SM SCT100

Vejrobservationer og prognoser fra mere end 4000 lufthavne (METAR og TAF).

De gule og røde prikker repræsenterer de meteorologiske stationer.

Flyt musen over at se navnet på stationen.

Så klik over at se vejr observationer og prognoser.

At skifte det kort: Klik på de grønne knapper med et sort kors for at zoome ind; på den grønne knap med en bindestreg for at zoome ud; eller på de grønne pile for tilstødende kort.


METAR-TAF: